Time,TemperatureF,DewpointF,PressureIn,WindDirection,WindDirectionDegrees,WindSpeedMPH,WindSpeedGustMPH,Humidity,HourlyPrecipIn,Conditions,Clouds,dailyrainin,SoftwareType,DateUTC
2013-03-31 00:03:00,56.0,-99.9,30.19,WSW,251,0.0,0.0,87,0.00,,,0.00,,2013-03-31 04:03:00,
2013-03-31 00:13:00,56.0,52.0,30.19,WSW,251,0.0,0.0,87,0.00,,,0.00,,2013-03-31 04:13:00,
2013-03-31 00:23:00,56.0,52.0,30.19,WSW,251,0.0,0.0,88,0.00,,,0.00,,2013-03-31 04:23:00,
2013-03-31 00:33:00,56.0,52.0,30.19,WSW,251,0.0,0.0,88,0.00,,,0.00,,2013-03-31 04:33:00,
2013-03-31 00:42:00,56.0,52.0,30.19,WSW,251,0.0,0.0,88,0.00,,,0.00,,2013-03-31 04:42:00,
2013-03-31 00:52:00,57.0,53.0,30.17,WSW,251,0.0,0.0,88,0.00,,,0.00,,2013-03-31 04:52:00,
2013-03-31 01:02:00,57.0,53.0,30.17,WSW,251,0.0,0.0,87,0.00,,,0.00,,2013-03-31 05:02:00,
2013-03-31 01:13:00,57.0,53.0,30.17,WSW,251,0.0,0.0,87,0.00,,,0.00,,2013-03-31 05:13:00,
2013-03-31 01:22:00,57.0,53.0,30.17,WSW,251,0.0,0.0,88,0.00,,,0.00,,2013-03-31 05:22:00,
2013-03-31 01:32:00,57.0,53.0,30.17,WSW,251,0.0,0.0,88,0.00,,,0.00,,2013-03-31 05:32:00,
2013-03-31 01:42:00,57.0,53.0,30.17,WSW,251,0.0,0.0,88,0.00,,,0.00,,2013-03-31 05:42:00,
2013-03-31 01:53:00,56.0,52.0,30.16,WSW,251,0.0,0.0,88,0.00,,,0.00,,2013-03-31 05:53:00,
2013-03-31 02:02:00,56.0,53.0,30.15,WSW,251,0.0,0.0,89,0.00,,,0.00,,2013-03-31 06:02:00,
2013-03-31 02:12:00,56.0,53.0,30.15,WSW,251,0.0,0.0,89,0.00,,,0.00,,2013-03-31 06:12:00,
2013-03-31 02:22:00,55.0,52.0,30.15,WSW,251,0.0,0.0,89,0.00,,,0.00,,2013-03-31 06:22:00,
2013-03-31 02:32:00,55.0,52.0,30.15,WSW,251,0.0,0.0,89,0.00,,,0.00,,2013-03-31 06:32:00,
2013-03-31 02:42:00,55.0,52.0,30.15,WSW,251,0.0,0.0,89,0.00,,,0.00,,2013-03-31 06:42:00,
2013-03-31 02:52:00,54.0,51.0,30.14,WSW,251,0.0,0.0,90,0.00,,,0.00,,2013-03-31 06:52:00,
2013-03-31 03:02:00,54.0,51.0,30.14,WSW,251,0.0,0.0,90,0.00,,,0.00,,2013-03-31 07:02:00,
2013-03-31 03:12:00,54.0,51.0,30.14,WSW,251,0.0,0.0,90,0.00,,,0.00,,2013-03-31 07:12:00,
2013-03-31 03:22:00,54.0,51.0,30.14,WSW,251,0.0,0.0,91,0.00,,,0.00,,2013-03-31 07:22:00,
2013-03-31 03:33:00,54.0,51.0,30.13,WSW,251,0.0,0.0,91,0.00,,,0.00,,2013-03-31 07:33:00,
2013-03-31 03:42:00,54.0,51.0,30.13,WSW,251,0.0,0.0,91,0.00,,,0.00,,2013-03-31 07:42:00,
2013-03-31 03:53:00,53.0,50.0,30.12,WSW,251,0.0,0.0,91,0.00,,,0.00,,2013-03-31 07:53:00,
2013-03-31 04:02:00,53.0,50.0,30.12,WSW,251,0.0,0.0,91,0.00,,,0.00,,2013-03-31 08:02:00,
2013-03-31 04:12:00,53.0,50.0,30.12,WSW,251,0.0,0.0,91,0.00,,,0.00,,2013-03-31 08:12:00,
2013-03-31 04:22:00,53.0,51.0,30.12,WSW,251,0.0,0.0,92,0.00,,,0.00,,2013-03-31 08:22:00,
2013-03-31 04:32:00,53.0,50.0,30.12,WSW,251,0.0,0.0,91,0.00,,,0.00,,2013-03-31 08:32:00,
2013-03-31 04:42:00,53.0,50.0,30.12,WSW,251,0.0,0.0,91,0.00,,,0.00,,2013-03-31 08:42:00,
2013-03-31 04:52:00,53.0,51.0,30.11,WSW,251,0.0,0.0,92,0.00,,,0.00,,2013-03-31 08:52:00,
2013-03-31 05:02:00,53.0,51.0,30.12,WSW,251,0.0,1.0,92,0.00,,,0.00,,2013-03-31 09:02:00,
2013-03-31 05:12:00,53.0,51.0,30.12,WSW,251,0.0,1.0,92,0.00,,,0.00,,2013-03-31 09:12:00,
2013-03-31 05:22:00,53.0,51.0,30.12,WSW,251,0.0,0.0,92,0.00,,,0.00,,2013-03-31 09:22:00,
2013-03-31 05:33:00,53.0,51.0,30.12,WSW,251,0.0,0.0,92,0.00,,,0.00,,2013-03-31 09:33:00,
2013-03-31 05:42:00,53.0,51.0,30.12,WSW,251,0.0,0.0,92,0.00,,,0.00,,2013-03-31 09:42:00,
2013-03-31 05:53:00,52.0,50.0,30.12,WSW,251,0.0,0.0,92,0.00,,,0.00,,2013-03-31 09:53:00,
2013-03-31 06:03:00,52.0,50.0,30.12,WSW,251,0.0,0.0,92,0.00,,,0.00,,2013-03-31 10:03:00,
2013-03-31 06:13:00,52.0,50.0,30.12,WSW,251,0.0,0.0,92,0.00,,,0.00,,2013-03-31 10:13:00,
2013-03-31 06:24:00,51.0,49.0,30.12,WSW,251,0.0,0.0,92,0.00,,,0.00,,2013-03-31 10:24:00,
2013-03-31 06:32:00,51.0,49.0,30.12,WSW,251,0.0,0.0,92,0.00,,,0.00,,2013-03-31 10:32:00,
2013-03-31 06:42:00,51.0,49.0,30.12,WSW,251,0.0,0.0,92,0.00,,,0.00,,2013-03-31 10:42:00,
2013-03-31 06:53:00,50.0,48.0,30.11,WSW,251,0.0,0.0,92,0.00,,,0.00,,2013-03-31 10:53:00,
2013-03-31 07:02:00,50.0,48.0,30.11,WSW,251,0.0,0.0,92,0.00,,,0.00,,2013-03-31 11:02:00,
2013-03-31 07:12:00,50.0,48.0,30.11,WSW,251,0.0,0.0,92,0.00,,,0.00,,2013-03-31 11:12:00,
2013-03-31 07:23:00,50.0,48.0,30.11,WSW,251,0.0,0.0,93,0.00,,,0.00,,2013-03-31 11:23:00,
2013-03-31 07:32:00,50.0,48.0,30.11,WSW,251,0.0,0.0,93,0.00,,,0.00,,2013-03-31 11:32:00,
2013-03-31 07:42:00,50.0,48.0,30.11,WSW,251,0.0,0.0,93,0.00,,,0.00,,2013-03-31 11:42:00,
2013-03-31 07:53:00,51.0,49.0,30.11,WSW,251,0.0,0.0,94,0.00,,,0.00,,2013-03-31 11:53:00,
2013-03-31 08:03:00,51.0,49.0,30.12,WSW,251,0.0,0.0,94,0.00,,,0.00,,2013-03-31 12:03:00,
2013-03-31 08:12:00,51.0,49.0,30.12,WSW,251,0.0,0.0,94,0.00,,,0.00,,2013-03-31 12:12:00,
2013-03-31 08:22:00,52.0,50.0,30.11,WSW,251,0.0,0.0,94,0.00,,,0.00,,2013-03-31 12:22:00,
2013-03-31 08:33:00,52.0,50.0,30.12,WSW,251,0.0,0.0,94,0.00,,,0.00,,2013-03-31 12:33:00,
2013-03-31 08:42:00,52.0,50.0,30.12,WSW,251,0.0,0.0,94,0.00,,,0.00,,2013-03-31 12:42:00,
2013-03-31 08:53:00,55.0,54.0,30.13,WSW,251,0.0,0.0,95,0.00,,,0.00,,2013-03-31 12:53:00,
2013-03-31 09:02:00,58.0,57.0,30.13,WSW,251,1.0,1.0,96,0.00,,,0.00,,2013-03-31 13:02:00,
2013-03-31 09:12:00,58.0,57.0,30.13,WSW,251,1.0,1.0,96,0.00,,,0.00,,2013-03-31 13:12:00,
2013-03-31 09:22:00,63.0,60.0,30.13,ENE,61,1.0,2.0,90,0.00,,,0.00,,2013-03-31 13:22:00,
2013-03-31 09:32:00,65.0,60.0,30.13,SSW,195,1.0,2.0,85,0.00,,,0.00,,2013-03-31 13:32:00,
2013-03-31 09:42:00,65.0,60.0,30.13,SSW,195,1.0,2.0,85,0.00,,,0.00,,2013-03-31 13:42:00,
2013-03-31 09:53:00,68.0,61.0,30.13,SSE,147,0.0,4.0,77,0.00,,,0.00,,2013-03-31 13:53:00,
2013-03-31 10:02:00,70.0,62.0,30.13,SE,138,1.0,5.0,75,0.00,,,0.00,,2013-03-31 14:02:00,
2013-03-31 10:12:00,70.0,62.0,30.13,SE,138,1.0,5.0,75,0.00,,,0.00,,2013-03-31 14:12:00,
2013-03-31 10:22:00,72.0,62.0,30.13,SSW,193,0.0,3.0,70,0.00,,,0.00,,2013-03-31 14:22:00,
2013-03-31 10:32:00,73.0,62.0,30.13,SW,226,3.0,5.0,68,0.00,,,0.00,,2013-03-31 14:32:00,
2013-03-31 10:42:00,73.0,62.0,30.13,SW,226,3.0,5.0,68,0.00,,,0.00,,2013-03-31 14:42:00,
2013-03-31 10:52:00,75.0,62.0,30.13,SE,135,3.0,5.0,64,0.00,,,0.00,,2013-03-31 14:52:00,
2013-03-31 11:03:00,76.0,62.0,30.13,ESE,113,3.0,7.0,61,0.00,,,0.00,,2013-03-31 15:03:00,
2013-03-31 11:13:00,76.0,62.0,30.13,ESE,113,3.0,7.0,61,0.00,,,0.00,,2013-03-31 15:13:00,
2013-03-31 11:22:00,77.0,61.0,30.12,SE,142,2.0,7.0,58,0.00,,,0.00,,2013-03-31 15:22:00,
2013-03-31 11:33:00,78.0,62.0,30.12,South,190,2.0,7.0,58,0.00,,,0.00,,2013-03-31 15:33:00,
2013-03-31 11:43:00,78.0,62.0,30.12,South,190,2.0,7.0,58,0.00,,,0.00,,2013-03-31 15:43:00,
2013-03-31 11:54:00,79.0,62.0,30.12,East,94,2.0,4.0,56,0.00,,,0.00,,2013-03-31 15:54:00,
2013-03-31 12:03:00,80.0,62.0,30.12,SSE,155,3.0,7.0,55,0.00,,,0.00,,2013-03-31 16:03:00,
2013-03-31 12:13:00,80.0,62.0,30.12,SSE,155,3.0,7.0,55,0.00,,,0.00,,2013-03-31 16:13:00,
2013-03-31 12:23:00,80.0,63.0,30.11,SSE,158,0.0,2.0,56,0.00,,,0.00,,2013-03-31 16:23:00,
2013-03-31 12:33:00,81.0,63.0,30.12,SSE,157,5.0,7.0,54,0.00,,,0.00,,2013-03-31 16:33:00,
2013-03-31 12:43:00,81.0,63.0,30.12,SSE,157,5.0,7.0,54,0.00,,,0.00,,2013-03-31 16:43:00,
2013-03-31 12:53:00,81.0,62.0,30.11,SE,132,1.0,6.0,53,0.00,,,0.00,,2013-03-31 16:53:00,
2013-03-31 13:03:00,82.0,61.0,30.10,South,190,1.0,9.0,50,0.00,,,0.00,,2013-03-31 17:03:00,
2013-03-31 13:12:00,82.0,61.0,30.10,South,190,1.0,9.0,50,0.00,,,0.00,,2013-03-31 17:12:00,
2013-03-31 13:23:00,83.0,61.0,30.10,WSW,238,2.0,6.0,48,0.00,,,0.00,,2013-03-31 17:23:00,
2013-03-31 13:32:00,83.0,61.0,30.09,West,266,4.0,6.0,48,0.00,,,0.00,,2013-03-31 17:32:00,
2013-03-31 13:43:00,83.0,61.0,30.09,West,266,4.0,6.0,48,0.00,,,0.00,,2013-03-31 17:43:00,
2013-03-31 13:52:00,84.0,62.0,30.09,SE,132,4.0,10.0,47,0.00,,,0.00,,2013-03-31 17:52:00,
2013-03-31 14:03:00,84.0,62.0,30.08,SW,234,4.0,10.0,47,0.00,,,0.00,,2013-03-31 18:03:00,
2013-03-31 14:13:00,84.0,62.0,30.08,SW,234,4.0,10.0,47,0.00,,,0.00,,2013-03-31 18:13:00,
2013-03-31 14:22:00,84.0,62.0,30.08,SSW,213,0.0,4.0,48,0.00,,,0.00,,2013-03-31 18:22:00,
2013-03-31 14:32:00,84.0,63.0,30.07,West,267,3.0,10.0,49,0.00,,,0.00,,2013-03-31 18:32:00,
2013-03-31 14:42:00,84.0,63.0,30.07,West,267,3.0,10.0,49,0.00,,,0.00,,2013-03-31 18:42:00,
2013-03-31 14:53:00,84.0,63.0,30.07,WSW,238,2.0,10.0,50,0.00,,,0.00,,2013-03-31 18:53:00,
2013-03-31 15:03:00,84.0,64.0,30.06,SW,221,4.0,8.0,51,0.00,,,0.00,,2013-03-31 19:03:00,
2013-03-31 15:12:00,84.0,64.0,30.06,SW,221,4.0,8.0,51,0.00,,,0.00,,2013-03-31 19:12:00,
2013-03-31 15:22:00,83.0,63.0,30.05,West,275,1.0,10.0,51,0.00,,,0.00,,2013-03-31 19:22:00,
2013-03-31 15:33:00,84.0,63.0,30.05,WSW,254,3.0,7.0,50,0.00,,,0.00,,2013-03-31 19:33:00,
2013-03-31 15:43:00,84.0,63.0,30.05,WSW,254,3.0,7.0,50,0.00,,,0.00,,2013-03-31 19:43:00,
2013-03-31 15:53:00,83.0,63.0,30.04,SSW,213,3.0,8.0,51,0.00,,,0.00,,2013-03-31 19:53:00,
2013-03-31 16:03:00,83.0,63.0,30.04,SSW,213,3.0,8.0,51,0.00,,,0.00,,2013-03-31 20:03:00,
2013-03-31 16:12:00,83.0,63.0,30.04,SSW,213,3.0,8.0,51,0.00,,,0.00,,2013-03-31 20:12:00,
2013-03-31 16:23:00,82.0,62.0,30.03,SE,140,1.0,7.0,51,0.00,,,0.00,,2013-03-31 20:23:00,
2013-03-31 16:34:00,83.0,62.0,30.03,SSW,207,4.0,7.0,49,0.00,,,0.00,,2013-03-31 20:34:00,
2013-03-31 16:43:00,83.0,62.0,30.03,SSW,207,4.0,7.0,49,0.00,,,0.00,,2013-03-31 20:43:00,
2013-03-31 16:53:00,83.0,62.0,30.02,SSE,163,4.0,7.0,50,0.00,,,0.00,,2013-03-31 20:53:00,
2013-03-31 17:02:00,82.0,62.0,30.02,WSW,258,9.0,9.0,51,0.00,,,0.00,,2013-03-31 21:02:00,
2013-03-31 17:13:00,82.0,62.0,30.02,WSW,258,9.0,9.0,51,0.00,,,0.00,,2013-03-31 21:13:00,
2013-03-31 17:22:00,82.0,64.0,30.02,WSW,251,1.0,7.0,54,0.00,,,0.00,,2013-03-31 21:22:00,
2013-03-31 17:34:00,82.0,64.0,30.02,East,82,1.0,7.0,54,0.00,,,0.00,,2013-03-31 21:34:00,
2013-03-31 17:43:00,82.0,64.0,30.02,East,82,1.0,7.0,54,0.00,,,0.00,,2013-03-31 21:43:00,
2013-03-31 17:54:00,82.0,64.0,30.02,East,82,1.0,7.0,54,0.00,,,0.00,,2013-03-31 21:54:00,
2013-03-31 18:04:00,81.0,64.0,30.02,South,190,2.0,6.0,56,0.00,,,0.00,,2013-03-31 22:04:00,
2013-03-31 18:13:00,81.0,64.0,30.02,South,190,2.0,6.0,56,0.00,,,0.00,,2013-03-31 22:13:00,
2013-03-31 18:24:00,80.0,63.0,30.01,SSW,206,2.0,6.0,57,0.00,,,0.00,,2013-03-31 22:24:00,
2013-03-31 18:33:00,80.0,64.0,30.01,SW,229,1.0,6.0,58,0.00,,,0.00,,2013-03-31 22:33:00,
2013-03-31 18:43:00,80.0,64.0,30.01,SW,229,1.0,6.0,58,0.00,,,0.00,,2013-03-31 22:43:00,
2013-03-31 18:53:00,79.0,63.0,30.01,SE,132,0.0,6.0,59,0.00,,,0.00,,2013-03-31 22:53:00,
2013-03-31 19:03:00,79.0,63.0,30.01,SE,132,0.0,6.0,59,0.00,,,0.00,,2013-03-31 23:03:00,
2013-03-31 19:13:00,79.0,63.0,30.01,SE,132,0.0,6.0,59,0.00,,,0.00,,2013-03-31 23:13:00,
2013-03-31 19:22:00,76.0,62.0,30.01,WSW,258,0.0,4.0,62,0.00,,,0.00,,2013-03-31 23:22:00,
2013-03-31 19:33:00,76.0,62.0,30.01,SW,232,3.0,4.0,63,0.00,,,0.00,,2013-03-31 23:33:00,
2013-03-31 19:43:00,76.0,62.0,30.01,SW,232,3.0,4.0,63,0.00,,,0.00,,2013-03-31 23:43:00,
2013-03-31 19:53:00,75.0,62.0,30.02,SW,227,0.0,3.0,64,0.00,,,0.00,,2013-03-31 23:53:00,
2013-03-31 20:02:00,75.0,62.0,30.02,SW,227,0.0,3.0,64,0.00,,,0.00,,2013-04-01 00:02:00,
2013-03-31 20:12:00,72.0,62.0,30.02,SSW,207,0.0,3.0,72,0.00,,,0.00,,2013-04-01 00:12:00,
2013-03-31 20:13:00,75.0,62.0,30.02,SW,227,0.0,3.0,64,0.00,,,0.00,,2013-04-01 00:13:00,
2013-03-31 20:22:00,73.0,63.0,30.02,South,177,0.0,3.0,70,0.00,,,0.00,,2013-04-01 00:22:00,
2013-03-31 20:32:00,72.0,62.0,30.02,SSW,207,0.0,3.0,72,0.00,,,0.00,,2013-04-01 00:32:00,
2013-03-31 20:43:00,72.0,62.0,30.02,SSW,207,0.0,3.0,72,0.00,,,0.00,,2013-04-01 00:43:00,
2013-03-31 20:53:00,72.0,62.0,30.02,SSW,207,0.0,3.0,72,0.00,,,0.00,,2013-04-01 00:53:00,
2013-03-31 21:03:00,72.0,62.0,30.02,SSW,207,0.0,3.0,72,0.00,,,0.00,,2013-04-01 01:03:00,
2013-03-31 21:23:00,70.0,62.0,30.02,SSW,207,0.0,0.0,76,0.00,,,0.00,,2013-04-01 01:23:00,
2013-03-31 21:33:00,68.0,62.0,30.02,SSW,207,0.0,0.0,80,0.00,,,0.00,,2013-04-01 01:33:00,
2013-03-31 21:42:00,68.0,62.0,30.02,SSW,207,0.0,0.0,80,0.00,,,0.00,,2013-04-01 01:42:00,
2013-03-31 21:52:00,66.0,61.0,30.02,SSW,207,0.0,0.0,83,0.00,,,0.00,,2013-04-01 01:52:00,
2013-03-31 22:03:00,65.0,60.0,30.03,SSW,207,0.0,0.0,84,0.00,,,0.00,,2013-04-01 02:03:00,
2013-03-31 22:13:00,65.0,60.0,30.03,SSW,207,0.0,0.0,84,0.00,,,0.00,,2013-04-01 02:13:00,
2013-03-31 22:23:00,64.0,60.0,30.03,SSW,207,0.0,0.0,86,0.00,,,0.00,,2013-04-01 02:23:00,
2013-03-31 22:33:00,64.0,60.0,30.03,SSW,207,0.0,0.0,86,0.00,,,0.00,,2013-04-01 02:33:00,
2013-03-31 22:42:00,64.0,60.0,30.03,SSW,207,0.0,0.0,86,0.00,,,0.00,,2013-04-01 02:42:00,
2013-03-31 22:53:00,63.0,59.0,30.03,SSW,207,0.0,0.0,88,0.00,,,0.00,,2013-04-01 02:53:00,
2013-03-31 23:03:00,62.0,58.0,30.03,SSW,207,0.0,0.0,88,0.00,,,0.00,,2013-04-01 03:03:00,
2013-03-31 23:12:00,62.0,58.0,30.03,SSW,207,0.0,0.0,88,0.00,,,0.00,,2013-04-01 03:12:00,
2013-03-31 23:23:00,62.0,59.0,30.04,SSW,207,0.0,0.0,89,0.00,,,0.00,,2013-04-01 03:23:00,
2013-03-31 23:34:00,62.0,59.0,30.04,SSW,207,0.0,0.0,89,0.00,,,0.00,,2013-04-01 03:34:00,
2013-03-31 23:43:00,62.0,59.0,30.04,SSW,207,0.0,0.0,89,0.00,,,0.00,,2013-04-01 03:43:00,
2013-03-31 23:53:00,61.0,58.0,30.04,SSW,207,0.0,0.0,91,0.00,,,0.00,,2013-04-01 03:53:00,